sensor_id;sensor_type;location;lat;lon;timestamp;P1;durP1;ratioP1;P2;durP2;ratioP2
72127;SDS011;60000;51.030;7.024;2023-05-10T00:01:32;12.37;;;6.10;;
72127;SDS011;60000;51.030;7.024;2023-05-10T00:03:57;10.67;;;5.67;;
72127;SDS011;60000;51.030;7.024;2023-05-10T00:06:23;10.57;;;5.53;;
72127;SDS011;60000;51.030;7.024;2023-05-10T00:08:48;9.87;;;4.70;;
72127;SDS011;60000;51.030;7.024;2023-05-10T00:11:13;10.60;;;5.33;;
72127;SDS011;60000;51.030;7.024;2023-05-10T00:13:39;11.07;;;6.10;;
72127;SDS011;60000;51.030;7.024;2023-05-10T00:16:05;12.00;;;6.30;;
72127;SDS011;60000;51.030;7.024;2023-05-10T00:18:30;11.70;;;5.80;;
72127;SDS011;60000;51.030;7.024;2023-05-10T00:20:55;12.20;;;6.20;;
72127;SDS011;60000;51.030;7.024;2023-05-10T00:23:21;12.50;;;6.03;;
72127;SDS011;60000;51.030;7.024;2023-05-10T00:25:46;11.55;;;6.03;;
72127;SDS011;60000;51.030;7.024;2023-05-10T00:28:11;14.40;;;6.83;;
72127;SDS011;60000;51.030;7.024;2023-05-10T00:30:37;13.33;;;6.73;;
72127;SDS011;60000;51.030;7.024;2023-05-10T00:33:02;13.07;;;6.50;;
72127;SDS011;60000;51.030;7.024;2023-05-10T00:35:27;13.43;;;6.60;;
72127;SDS011;60000;51.030;7.024;2023-05-10T00:37:53;14.15;;;7.25;;
72127;SDS011;60000;51.030;7.024;2023-05-10T00:40:18;13.98;;;7.25;;
72127;SDS011;60000;51.030;7.024;2023-05-10T00:42:43;15.10;;;6.70;;
72127;SDS011;60000;51.030;7.024;2023-05-10T00:45:09;15.37;;;6.90;;
72127;SDS011;60000;51.030;7.024;2023-05-10T00:47:34;13.27;;;6.90;;
72127;SDS011;60000;51.030;7.024;2023-05-10T00:50:00;12.80;;;6.43;;
72127;SDS011;60000;51.030;7.024;2023-05-10T00:52:26;14.90;;;7.30;;
72127;SDS011;60000;51.030;7.024;2023-05-10T00:54:53;12.43;;;6.40;;
72127;SDS011;60000;51.030;7.024;2023-05-10T00:57:18;13.53;;;7.40;;
72127;SDS011;60000;51.030;7.024;2023-05-10T00:59:44;16.05;;;7.20;;
72127;SDS011;60000;51.030;7.024;2023-05-10T01:02:09;16.27;;;7.83;;
72127;SDS011;60000;51.030;7.024;2023-05-10T01:04:35;14.20;;;6.82;;
72127;SDS011;60000;51.030;7.024;2023-05-10T01:07:01;13.40;;;7.45;;
72127;SDS011;60000;51.030;7.024;2023-05-10T01:09:27;14.85;;;7.55;;
72127;SDS011;60000;51.030;7.024;2023-05-10T01:11:52;15.40;;;8.00;;
72127;SDS011;60000;51.030;7.024;2023-05-10T01:14:18;15.77;;;8.18;;
72127;SDS011;60000;51.030;7.024;2023-05-10T01:16:44;14.65;;;7.35;;
72127;SDS011;60000;51.030;7.024;2023-05-10T01:19:27;13.55;;;7.57;;
72127;SDS011;60000;51.030;7.024;2023-05-10T01:36:35;12.35;;;5.97;;
72127;SDS011;60000;51.030;7.024;2023-05-10T01:41:59;11.45;;;6.07;;
72127;SDS011;60000;51.030;7.024;2023-05-10T01:47:19;12.85;;;6.32;;
72127;SDS011;60000;51.030;7.024;2023-05-10T01:49:50;13.00;;;5.82;;
72127;SDS011;60000;51.030;7.024;2023-05-10T01:52:18;10.00;;;5.43;;
72127;SDS011;60000;51.030;7.024;2023-05-10T01:54:53;10.73;;;5.40;;
72127;SDS011;60000;51.030;7.024;2023-05-10T01:57:22;11.02;;;5.00;;
72127;SDS011;60000;51.030;7.024;2023-05-10T01:59:51;9.07;;;4.50;;
72127;SDS011;60000;51.030;7.024;2023-05-10T02:02:21;8.45;;;4.30;;
72127;SDS011;60000;51.030;7.024;2023-05-10T02:04:47;6.85;;;3.20;;
72127;SDS011;60000;51.030;7.024;2023-05-10T02:07:14;7.30;;;3.30;;
72127;SDS011;60000;51.030;7.024;2023-05-10T02:09:41;7.63;;;4.10;;
72127;SDS011;60000;51.030;7.024;2023-05-10T02:12:09;8.05;;;3.83;;
72127;SDS011;60000;51.030;7.024;2023-05-10T02:14:35;8.40;;;3.97;;
72127;SDS011;60000;51.030;7.024;2023-05-10T02:17:02;8.25;;;4.07;;
72127;SDS011;60000;51.030;7.024;2023-05-10T02:19:30;6.78;;;3.63;;
72127;SDS011;60000;51.030;7.024;2023-05-10T02:21:57;6.72;;;3.15;;
72127;SDS011;60000;51.030;7.024;2023-05-10T02:24:24;7.00;;;3.47;;
72127;SDS011;60000;51.030;7.024;2023-05-10T02:26:51;6.07;;;2.97;;
72127;SDS011;60000;51.030;7.024;2023-05-10T02:29:18;6.55;;;2.85;;
72127;SDS011;60000;51.030;7.024;2023-05-10T02:31:44;6.00;;;2.60;;
72127;SDS011;60000;51.030;7.024;2023-05-10T02:34:10;5.63;;;2.30;;
72127;SDS011;60000;51.030;7.024;2023-05-10T02:36:37;6.40;;;2.90;;
72127;SDS011;60000;51.030;7.024;2023-05-10T02:39:04;7.00;;;2.10;;
72127;SDS011;60000;51.030;7.024;2023-05-10T02:41:34;5.38;;;2.08;;
72127;SDS011;60000;51.030;7.024;2023-05-10T02:44:01;5.28;;;2.40;;
72127;SDS011;60000;51.030;7.024;2023-05-10T02:46:28;6.03;;;2.33;;
72127;SDS011;60000;51.030;7.024;2023-05-10T02:48:54;6.38;;;2.58;;
72127;SDS011;60000;51.030;7.024;2023-05-10T02:51:19;5.67;;;2.57;;
72127;SDS011;60000;51.030;7.024;2023-05-10T02:53:49;5.55;;;2.30;;
72127;SDS011;60000;51.030;7.024;2023-05-10T02:56:40;4.82;;;2.08;;
72127;SDS011;60000;51.030;7.024;2023-05-10T02:59:07;4.57;;;2.00;;
72127;SDS011;60000;51.030;7.024;2023-05-10T03:01:32;5.43;;;2.37;;
72127;SDS011;60000;51.030;7.024;2023-05-10T03:03:58;4.33;;;1.90;;
72127;SDS011;60000;51.030;7.024;2023-05-10T03:06:23;5.70;;;2.67;;
72127;SDS011;60000;51.030;7.024;2023-05-10T03:08:48;4.43;;;1.90;;
72127;SDS011;60000;51.030;7.024;2023-05-10T03:14:05;7.27;;;3.27;;
72127;SDS011;60000;51.030;7.024;2023-05-10T03:17:40;6.55;;;3.28;;
72127;SDS011;60000;51.030;7.024;2023-05-10T03:19:47;7.50;;;2.90;;
72127;SDS011;60000;51.030;7.024;2023-05-10T03:22:23;6.85;;;2.78;;
72127;SDS011;60000;51.030;7.024;2023-05-10T03:24:55;6.93;;;3.10;;
72127;SDS011;60000;51.030;7.024;2023-05-10T03:27:23;5.00;;;2.10;;
72127;SDS011;60000;51.030;7.024;2023-05-10T03:29:50;4.85;;;2.20;;
72127;SDS011;60000;51.030;7.024;2023-05-10T03:32:16;5.97;;;2.85;;
72127;SDS011;60000;51.030;7.024;2023-05-10T03:34:42;4.93;;;2.07;;
72127;SDS011;60000;51.030;7.024;2023-05-10T03:37:08;4.95;;;2.10;;
72127;SDS011;60000;51.030;7.024;2023-05-10T03:39:33;9.70;;;4.47;;
72127;SDS011;60000;51.030;7.024;2023-05-10T03:41:59;8.37;;;4.47;;
72127;SDS011;60000;51.030;7.024;2023-05-10T03:44:24;7.85;;;3.40;;
72127;SDS011;60000;51.030;7.024;2023-05-10T03:46:49;7.90;;;4.13;;
72127;SDS011;60000;51.030;7.024;2023-05-10T03:49:14;8.00;;;4.30;;
72127;SDS011;60000;51.030;7.024;2023-05-10T03:51:40;7.40;;;3.63;;
72127;SDS011;60000;51.030;7.024;2023-05-10T03:54:05;7.23;;;3.70;;
72127;SDS011;60000;51.030;7.024;2023-05-10T03:56:30;7.43;;;3.43;;
72127;SDS011;60000;51.030;7.024;2023-05-10T03:58:56;6.83;;;3.60;;
72127;SDS011;60000;51.030;7.024;2023-05-10T04:01:21;6.38;;;2.80;;
72127;SDS011;60000;51.030;7.024;2023-05-10T04:03:47;7.23;;;3.20;;
72127;SDS011;60000;51.030;7.024;2023-05-10T04:06:12;7.87;;;3.60;;
72127;SDS011;60000;51.030;7.024;2023-05-10T04:08:37;6.30;;;3.00;;
72127;SDS011;60000;51.030;7.024;2023-05-10T04:11:09;7.73;;;3.70;;
72127;SDS011;60000;51.030;7.024;2023-05-10T04:13:36;7.22;;;3.47;;
72127;SDS011;60000;51.030;7.024;2023-05-10T04:16:02;6.55;;;3.00;;
72127;SDS011;60000;51.030;7.024;2023-05-10T04:18:27;6.50;;;3.03;;
72127;SDS011;60000;51.030;7.024;2023-05-10T04:20:53;6.63;;;2.95;;
72127;SDS011;60000;51.030;7.024;2023-05-10T04:23:18;5.28;;;2.25;;
72127;SDS011;60000;51.030;7.024;2023-05-10T04:25:43;6.47;;;3.20;;
72127;SDS011;60000;51.030;7.024;2023-05-10T04:28:09;8.67;;;4.17;;
72127;SDS011;60000;51.030;7.024;2023-05-10T04:30:34;8.50;;;4.07;;
72127;SDS011;60000;51.030;7.024;2023-05-10T04:33:00;10.93;;;4.73;;
72127;SDS011;60000;51.030;7.024;2023-05-10T04:35:26;10.43;;;5.15;;
72127;SDS011;60000;51.030;7.024;2023-05-10T04:37:52;11.70;;;6.40;;
72127;SDS011;60000;51.030;7.024;2023-05-10T04:40:17;14.97;;;7.40;;
72127;SDS011;60000;51.030;7.024;2023-05-10T04:42:43;14.57;;;7.50;;
72127;SDS011;60000;51.030;7.024;2023-05-10T04:45:09;14.87;;;7.53;;
72127;SDS011;60000;51.030;7.024;2023-05-10T04:47:35;13.93;;;7.13;;
72127;SDS011;60000;51.030;7.024;2023-05-10T04:50:01;15.90;;;8.02;;
72127;SDS011;60000;51.030;7.024;2023-05-10T04:52:27;20.48;;;8.48;;
72127;SDS011;60000;51.030;7.024;2023-05-10T04:54:52;13.63;;;6.35;;
72127;SDS011;60000;51.030;7.024;2023-05-10T04:57:18;11.83;;;6.50;;
72127;SDS011;60000;51.030;7.024;2023-05-10T04:59:43;13.07;;;6.80;;
72127;SDS011;60000;51.030;7.024;2023-05-10T05:02:08;13.83;;;7.47;;
72127;SDS011;60000;51.030;7.024;2023-05-10T05:04:34;17.73;;;8.40;;
72127;SDS011;60000;51.030;7.024;2023-05-10T05:06:59;14.67;;;8.10;;
72127;SDS011;60000;51.030;7.024;2023-05-10T05:09:24;16.70;;;8.00;;
72127;SDS011;60000;51.030;7.024;2023-05-10T05:11:50;17.43;;;8.07;;
72127;SDS011;60000;51.030;7.024;2023-05-10T05:14:15;16.85;;;9.20;;
72127;SDS011;60000;51.030;7.024;2023-05-10T05:16:40;16.43;;;8.87;;
72127;SDS011;60000;51.030;7.024;2023-05-10T05:19:06;16.67;;;8.93;;
72127;SDS011;60000;51.030;7.024;2023-05-10T05:21:31;17.07;;;8.40;;
72127;SDS011;60000;51.030;7.024;2023-05-10T05:23:57;14.50;;;7.60;;
72127;SDS011;60000;51.030;7.024;2023-05-10T05:26:23;15.90;;;8.50;;
72127;SDS011;60000;51.030;7.024;2023-05-10T05:28:48;13.93;;;8.13;;
72127;SDS011;60000;51.030;7.024;2023-05-10T05:31:16;16.02;;;8.38;;
72127;SDS011;60000;51.030;7.024;2023-05-10T05:33:42;16.67;;;8.45;;
72127;SDS011;60000;51.030;7.024;2023-05-10T05:36:08;17.87;;;8.63;;
72127;SDS011;60000;51.030;7.024;2023-05-10T05:38:33;16.37;;;7.93;;
72127;SDS011;60000;51.030;7.024;2023-05-10T05:40:58;17.50;;;7.93;;
72127;SDS011;60000;51.030;7.024;2023-05-10T05:43:24;16.50;;;7.25;;
72127;SDS011;60000;51.030;7.024;2023-05-10T05:45:49;16.02;;;7.50;;
72127;SDS011;60000;51.030;7.024;2023-05-10T05:48:16;15.98;;;7.72;;
72127;SDS011;60000;51.030;7.024;2023-05-10T05:50:42;16.40;;;8.30;;
72127;SDS011;60000;51.030;7.024;2023-05-10T05:53:07;15.50;;;7.90;;
72127;SDS011;60000;51.030;7.024;2023-05-10T05:55:33;15.32;;;7.70;;
72127;SDS011;60000;51.030;7.024;2023-05-10T05:57:59;15.00;;;7.83;;
72127;SDS011;60000;51.030;7.024;2023-05-10T06:00:24;14.87;;;7.67;;
72127;SDS011;60000;51.030;7.024;2023-05-10T06:02:49;12.43;;;6.53;;
72127;SDS011;60000;51.030;7.024;2023-05-10T06:05:15;15.37;;;7.23;;
72127;SDS011;60000;51.030;7.024;2023-05-10T06:07:40;14.57;;;7.10;;
72127;SDS011;60000;51.030;7.024;2023-05-10T06:10:07;16.67;;;7.38;;
72127;SDS011;60000;51.030;7.024;2023-05-10T06:12:33;12.55;;;6.90;;
72127;SDS011;60000;51.030;7.024;2023-05-10T06:14:58;12.47;;;6.97;;
72127;SDS011;60000;51.030;7.024;2023-05-10T06:17:23;13.97;;;7.00;;
72127;SDS011;60000;51.030;7.024;2023-05-10T06:19:49;13.93;;;6.78;;
72127;SDS011;60000;51.030;7.024;2023-05-10T06:22:14;15.07;;;6.30;;
72127;SDS011;60000;51.030;7.024;2023-05-10T06:24:40;14.90;;;7.03;;
72127;SDS011;60000;51.030;7.024;2023-05-10T06:27:05;11.13;;;5.93;;
72127;SDS011;60000;51.030;7.024;2023-05-10T06:29:31;12.32;;;6.15;;
72127;SDS011;60000;51.030;7.024;2023-05-10T06:31:57;16.27;;;8.25;;
72127;SDS011;60000;51.030;7.024;2023-05-10T06:34:23;17.55;;;9.30;;
72127;SDS011;60000;51.030;7.024;2023-05-10T06:36:48;18.33;;;8.85;;
72127;SDS011;60000;51.030;7.024;2023-05-10T06:39:14;17.53;;;8.33;;
72127;SDS011;60000;51.030;7.024;2023-05-10T06:41:39;17.53;;;8.40;;
72127;SDS011;60000;51.030;7.024;2023-05-10T06:44:05;20.60;;;8.35;;
72127;SDS011;60000;51.030;7.024;2023-05-10T06:46:30;16.05;;;7.97;;
72127;SDS011;60000;51.030;7.024;2023-05-10T06:48:56;13.07;;;6.70;;
72127;SDS011;60000;51.030;7.024;2023-05-10T06:51:21;16.13;;;7.77;;
72127;SDS011;60000;51.030;7.024;2023-05-10T06:53:47;15.02;;;7.00;;
72127;SDS011;60000;51.030;7.024;2023-05-10T06:56:13;14.00;;;6.83;;
72127;SDS011;60000;51.030;7.024;2023-05-10T06:58:38;17.33;;;8.57;;
72127;SDS011;60000;51.030;7.024;2023-05-10T07:01:03;17.50;;;8.17;;
72127;SDS011;60000;51.030;7.024;2023-05-10T07:03:29;17.40;;;7.88;;
72127;SDS011;60000;51.030;7.024;2023-05-10T07:05:59;14.77;;;7.43;;
72127;SDS011;60000;51.030;7.024;2023-05-10T07:08:29;18.52;;;9.40;;
72127;SDS011;60000;51.030;7.024;2023-05-10T07:11:04;15.38;;;7.82;;
72127;SDS011;60000;51.030;7.024;2023-05-10T07:13:34;14.15;;;7.10;;
72127;SDS011;60000;51.030;7.024;2023-05-10T07:16:00;16.20;;;7.50;;
72127;SDS011;60000;51.030;7.024;2023-05-10T07:18:29;13.73;;;6.90;;
72127;SDS011;60000;51.030;7.024;2023-05-10T07:20:56;13.60;;;6.80;;
72127;SDS011;60000;51.030;7.024;2023-05-10T07:23:22;13.85;;;6.35;;
72127;SDS011;60000;51.030;7.024;2023-05-10T07:25:48;13.17;;;6.33;;
72127;SDS011;60000;51.030;7.024;2023-05-10T07:28:15;15.05;;;7.82;;
72127;SDS011;60000;51.030;7.024;2023-05-10T07:30:41;16.73;;;7.88;;
72127;SDS011;60000;51.030;7.024;2023-05-10T07:33:07;17.10;;;7.47;;
72127;SDS011;60000;51.030;7.024;2023-05-10T07:35:34;14.03;;;6.90;;
72127;SDS011;60000;51.030;7.024;2023-05-10T07:38:00;14.10;;;6.05;;
72127;SDS011;60000;51.030;7.024;2023-05-10T07:40:25;13.30;;;6.75;;
72127;SDS011;60000;51.030;7.024;2023-05-10T07:42:51;13.40;;;6.40;;
72127;SDS011;60000;51.030;7.024;2023-05-10T07:45:16;14.03;;;5.93;;
72127;SDS011;60000;51.030;7.024;2023-05-10T07:47:42;10.73;;;5.32;;
72127;SDS011;60000;51.030;7.024;2023-05-10T07:50:07;14.63;;;6.90;;
72127;SDS011;60000;51.030;7.024;2023-05-10T07:52:33;17.13;;;7.30;;
72127;SDS011;60000;51.030;7.024;2023-05-10T07:54:58;13.30;;;6.97;;
72127;SDS011;60000;51.030;7.024;2023-05-10T07:57:24;12.70;;;6.90;;
72127;SDS011;60000;51.030;7.024;2023-05-10T07:59:49;11.90;;;6.03;;
72127;SDS011;60000;51.030;7.024;2023-05-10T08:02:14;12.80;;;5.85;;
72127;SDS011;60000;51.030;7.024;2023-05-10T08:04:40;10.30;;;5.37;;
72127;SDS011;60000;51.030;7.024;2023-05-10T08:07:05;12.80;;;5.67;;
72127;SDS011;60000;51.030;7.024;2023-05-10T08:09:30;10.73;;;5.60;;
72127;SDS011;60000;51.030;7.024;2023-05-10T08:11:56;13.10;;;5.80;;
72127;SDS011;60000;51.030;7.024;2023-05-10T08:14:21;10.38;;;5.03;;
72127;SDS011;60000;51.030;7.024;2023-05-10T08:16:46;12.20;;;5.95;;
72127;SDS011;60000;51.030;7.024;2023-05-10T08:19:12;10.37;;;4.90;;
72127;SDS011;60000;51.030;7.024;2023-05-10T08:21:37;10.67;;;5.43;;
72127;SDS011;60000;51.030;7.024;2023-05-10T08:24:03;12.90;;;6.37;;
72127;SDS011;60000;51.030;7.024;2023-05-10T08:26:28;9.87;;;4.90;;
72127;SDS011;60000;51.030;7.024;2023-05-10T08:28:54;13.57;;;6.37;;
72127;SDS011;60000;51.030;7.024;2023-05-10T08:31:19;14.83;;;6.37;;
72127;SDS011;60000;51.030;7.024;2023-05-10T08:33:44;10.23;;;4.90;;
72127;SDS011;60000;51.030;7.024;2023-05-10T08:36:10;10.48;;;4.75;;
72127;SDS011;60000;51.030;7.024;2023-05-10T08:38:36;12.88;;;6.28;;
72127;SDS011;60000;51.030;7.024;2023-05-10T08:41:02;14.32;;;6.38;;
72127;SDS011;60000;51.030;7.024;2023-05-10T08:43:29;13.48;;;6.72;;
72127;SDS011;60000;51.030;7.024;2023-05-10T08:45:55;11.33;;;5.37;;
72127;SDS011;60000;51.030;7.024;2023-05-10T08:48:22;14.10;;;6.93;;
72127;SDS011;60000;51.030;7.024;2023-05-10T08:50:49;12.25;;;6.43;;
72127;SDS011;60000;51.030;7.024;2023-05-10T08:53:18;14.68;;;6.25;;
72127;SDS011;60000;51.030;7.024;2023-05-10T08:55:44;13.20;;;6.75;;
72127;SDS011;60000;51.030;7.024;2023-05-10T08:58:10;14.88;;;7.25;;
72127;SDS011;60000;51.030;7.024;2023-05-10T09:00:36;14.97;;;7.43;;
72127;SDS011;60000;51.030;7.024;2023-05-10T09:03:03;15.68;;;7.53;;
72127;SDS011;60000;51.030;7.024;2023-05-10T09:05:29;17.52;;;8.25;;
72127;SDS011;60000;51.030;7.024;2023-05-10T09:07:55;17.07;;;7.23;;
72127;SDS011;60000;51.030;7.024;2023-05-10T09:10:20;15.70;;;7.72;;
72127;SDS011;60000;51.030;7.024;2023-05-10T09:12:46;17.88;;;7.97;;
72127;SDS011;60000;51.030;7.024;2023-05-10T09:15:14;14.32;;;6.75;;
72127;SDS011;60000;51.030;7.024;2023-05-10T09:17:41;15.20;;;7.35;;
72127;SDS011;60000;51.030;7.024;2023-05-10T09:20:07;18.63;;;8.70;;
72127;SDS011;60000;51.030;7.024;2023-05-10T09:22:33;17.20;;;7.60;;
72127;SDS011;60000;51.030;7.024;2023-05-10T09:25:06;17.48;;;7.93;;
72127;SDS011;60000;51.030;7.024;2023-05-10T09:27:36;16.48;;;8.45;;
72127;SDS011;60000;51.030;7.024;2023-05-10T09:30:02;19.95;;;9.00;;
72127;SDS011;60000;51.030;7.024;2023-05-10T09:32:42;18.17;;;8.07;;
72127;SDS011;60000;51.030;7.024;2023-05-10T09:35:16;21.13;;;9.48;;
72127;SDS011;60000;51.030;7.024;2023-05-10T09:37:43;24.23;;;9.50;;
72127;SDS011;60000;51.030;7.024;2023-05-10T09:40:14;23.75;;;10.38;;
72127;SDS011;60000;51.030;7.024;2023-05-10T09:42:50;23.25;;;9.95;;
72127;SDS011;60000;51.030;7.024;2023-05-10T09:45:17;19.27;;;9.25;;
72127;SDS011;60000;51.030;7.024;2023-05-10T09:47:43;19.90;;;9.23;;
72127;SDS011;60000;51.030;7.024;2023-05-10T09:50:08;23.17;;;10.95;;
72127;SDS011;60000;51.030;7.024;2023-05-10T09:52:47;19.40;;;9.10;;
72127;SDS011;60000;51.030;7.024;2023-05-10T09:55:20;20.60;;;8.75;;
72127;SDS011;60000;51.030;7.024;2023-05-10T09:57:47;17.65;;;8.73;;
72127;SDS011;60000;51.030;7.024;2023-05-10T10:00:20;17.25;;;8.13;;
72127;SDS011;60000;51.030;7.024;2023-05-10T10:02:54;21.23;;;9.73;;
72127;SDS011;60000;51.030;7.024;2023-05-10T10:05:21;20.02;;;9.55;;
72127;SDS011;60000;51.030;7.024;2023-05-10T10:07:53;20.35;;;9.15;;
72127;SDS011;60000;51.030;7.024;2023-05-10T10:10:18;20.63;;;10.48;;
72127;SDS011;60000;51.030;7.024;2023-05-10T10:12:44;23.23;;;10.27;;
72127;SDS011;60000;51.030;7.024;2023-05-10T10:15:09;22.93;;;9.67;;
72127;SDS011;60000;51.030;7.024;2023-05-10T10:17:36;20.67;;;10.18;;
72127;SDS011;60000;51.030;7.024;2023-05-10T10:20:04;19.23;;;7.95;;
72127;SDS011;60000;51.030;7.024;2023-05-10T10:22:30;17.00;;;8.40;;
72127;SDS011;60000;51.030;7.024;2023-05-10T10:24:56;17.87;;;8.87;;
72127;SDS011;60000;51.030;7.024;2023-05-10T10:27:28;18.65;;;9.63;;
72127;SDS011;60000;51.030;7.024;2023-05-10T10:30:13;18.95;;;8.85;;
72127;SDS011;60000;51.030;7.024;2023-05-10T10:35:28;17.52;;;8.73;;
72127;SDS011;60000;51.030;7.024;2023-05-10T10:37:55;18.42;;;9.23;;
72127;SDS011;60000;51.030;7.024;2023-05-10T10:42:50;17.58;;;8.80;;
72127;SDS011;60000;51.030;7.024;2023-05-10T10:45:16;18.02;;;8.55;;
72127;SDS011;60000;51.030;7.024;2023-05-10T10:47:41;17.80;;;9.03;;
72127;SDS011;60000;51.030;7.024;2023-05-10T10:50:08;19.48;;;8.27;;
72127;SDS011;60000;51.030;7.024;2023-05-10T10:52:37;18.92;;;9.52;;
72127;SDS011;60000;51.030;7.024;2023-05-10T11:02:59;17.23;;;8.75;;
72127;SDS011;60000;51.030;7.024;2023-05-10T11:07:59;16.23;;;7.50;;
72127;SDS011;60000;51.030;7.024;2023-05-10T11:10:25;18.40;;;8.80;;
72127;SDS011;60000;51.030;7.024;2023-05-10T11:12:52;16.97;;;7.97;;
72127;SDS011;60000;51.030;7.024;2023-05-10T11:15:28;18.33;;;8.80;;
72127;SDS011;60000;51.030;7.024;2023-05-10T11:18:29;14.30;;;7.25;;
72127;SDS011;60000;51.030;7.024;2023-05-10T11:20:59;18.40;;;7.95;;
72127;SDS011;60000;51.030;7.024;2023-05-10T11:23:32;16.75;;;7.72;;
72127;SDS011;60000;51.030;7.024;2023-05-10T11:26:12;15.87;;;7.17;;
72127;SDS011;60000;51.030;7.024;2023-05-10T11:28:44;15.32;;;7.60;;
72127;SDS011;60000;51.030;7.024;2023-05-10T11:31:17;17.02;;;7.32;;
72127;SDS011;60000;51.030;7.024;2023-05-10T11:39:16;13.57;;;7.03;;
72127;SDS011;60000;51.030;7.024;2023-05-10T11:41:41;13.90;;;6.53;;
72127;SDS011;60000;51.030;7.024;2023-05-10T11:44:08;12.30;;;6.10;;
72127;SDS011;60000;51.030;7.024;2023-05-10T11:46:34;10.88;;;5.68;;
72127;SDS011;60000;51.030;7.024;2023-05-10T11:49:00;11.70;;;6.07;;
72127;SDS011;60000;51.030;7.024;2023-05-10T11:51:26;10.80;;;4.88;;
72127;SDS011;60000;51.030;7.024;2023-05-10T11:53:55;10.00;;;4.80;;
72127;SDS011;60000;51.030;7.024;2023-05-10T11:56:21;10.82;;;4.80;;
72127;SDS011;60000;51.030;7.024;2023-05-10T11:58:55;10.82;;;4.95;;
72127;SDS011;60000;51.030;7.024;2023-05-10T12:01:21;10.13;;;5.30;;
72127;SDS011;60000;51.030;7.024;2023-05-10T12:03:48;10.60;;;5.20;;
72127;SDS011;60000;51.030;7.024;2023-05-10T12:06:14;9.87;;;4.40;;
72127;SDS011;60000;51.030;7.024;2023-05-10T12:08:44;9.48;;;4.53;;
72127;SDS011;60000;51.030;7.024;2023-05-10T12:11:11;10.15;;;4.53;;
72127;SDS011;60000;51.030;7.024;2023-05-10T12:13:40;9.25;;;4.60;;
72127;SDS011;60000;51.030;7.024;2023-05-10T12:16:16;10.33;;;4.10;;
72127;SDS011;60000;51.030;7.024;2023-05-10T12:18:52;7.47;;;3.80;;
72127;SDS011;60000;51.030;7.024;2023-05-10T12:21:20;7.65;;;3.67;;
72127;SDS011;60000;51.030;7.024;2023-05-10T12:23:46;8.33;;;2.70;;
72127;SDS011;60000;51.030;7.024;2023-05-10T12:26:14;6.38;;;2.95;;
72127;SDS011;60000;51.030;7.024;2023-05-10T12:28:40;6.32;;;2.72;;
72127;SDS011;60000;51.030;7.024;2023-05-10T12:31:05;6.50;;;2.80;;
72127;SDS011;60000;51.030;7.024;2023-05-10T12:33:38;5.97;;;3.08;;
72127;SDS011;60000;51.030;7.024;2023-05-10T12:36:07;7.03;;;2.90;;
72127;SDS011;60000;51.030;7.024;2023-05-10T12:38:34;7.40;;;2.88;;
72127;SDS011;60000;51.030;7.024;2023-05-10T12:41:03;6.55;;;2.92;;
72127;SDS011;60000;51.030;7.024;2023-05-10T12:43:30;6.35;;;3.08;;
72127;SDS011;60000;51.030;7.024;2023-05-10T12:45:56;5.18;;;2.30;;
72127;SDS011;60000;51.030;7.024;2023-05-10T12:48:21;6.43;;;2.50;;
72127;SDS011;60000;51.030;7.024;2023-05-10T12:50:47;4.93;;;2.30;;
72127;SDS011;60000;51.030;7.024;2023-05-10T12:53:13;4.90;;;2.17;;
72127;SDS011;60000;51.030;7.024;2023-05-10T12:55:40;4.43;;;2.00;;
72127;SDS011;60000;51.030;7.024;2023-05-10T12:58:06;6.67;;;2.50;;
72127;SDS011;60000;51.030;7.024;2023-05-10T13:00:31;5.25;;;1.92;;
72127;SDS011;60000;51.030;7.024;2023-05-10T13:02:57;5.57;;;1.90;;
72127;SDS011;60000;51.030;7.024;2023-05-10T13:05:22;5.60;;;2.00;;
72127;SDS011;60000;51.030;7.024;2023-05-10T13:07:47;5.03;;;2.33;;
72127;SDS011;60000;51.030;7.024;2023-05-10T13:10:13;4.73;;;2.00;;
72127;SDS011;60000;51.030;7.024;2023-05-10T13:12:38;5.65;;;2.33;;
72127;SDS011;60000;51.030;7.024;2023-05-10T13:15:04;5.33;;;2.40;;
72127;SDS011;60000;51.030;7.024;2023-05-10T13:17:30;7.13;;;2.67;;
72127;SDS011;60000;51.030;7.024;2023-05-10T13:19:55;6.60;;;2.53;;
72127;SDS011;60000;51.030;7.024;2023-05-10T13:22:20;5.93;;;2.70;;
72127;SDS011;60000;51.030;7.024;2023-05-10T13:24:46;5.50;;;2.37;;
72127;SDS011;60000;51.030;7.024;2023-05-10T13:27:11;5.27;;;2.40;;
72127;SDS011;60000;51.030;7.024;2023-05-10T13:29:37;5.23;;;2.13;;
72127;SDS011;60000;51.030;7.024;2023-05-10T13:32:02;4.32;;;1.83;;
72127;SDS011;60000;51.030;7.024;2023-05-10T13:34:27;5.43;;;2.00;;
72127;SDS011;60000;51.030;7.024;2023-05-10T13:36:53;4.97;;;2.10;;
72127;SDS011;60000;51.030;7.024;2023-05-10T13:39:19;4.27;;;1.70;;
72127;SDS011;60000;51.030;7.024;2023-05-10T13:41:45;4.32;;;1.98;;
72127;SDS011;60000;51.030;7.024;2023-05-10T13:44:11;4.55;;;2.00;;
72127;SDS011;60000;51.030;7.024;2023-05-10T13:46:38;5.00;;;2.00;;
72127;SDS011;60000;51.030;7.024;2023-05-10T13:49:04;5.10;;;2.23;;
72127;SDS011;60000;51.030;7.024;2023-05-10T13:51:29;5.60;;;2.60;;
72127;SDS011;60000;51.030;7.024;2023-05-10T13:53:56;5.50;;;2.00;;
72127;SDS011;60000;51.030;7.024;2023-05-10T13:56:22;4.85;;;2.13;;
72127;SDS011;60000;51.030;7.024;2023-05-10T13:58:47;4.13;;;1.80;;
72127;SDS011;60000;51.030;7.024;2023-05-10T14:01:12;4.73;;;2.20;;
72127;SDS011;60000;51.030;7.024;2023-05-10T14:03:38;4.33;;;1.87;;
72127;SDS011;60000;51.030;7.024;2023-05-10T14:06:03;5.30;;;2.40;;
72127;SDS011;60000;51.030;7.024;2023-05-10T14:08:28;4.80;;;2.33;;
72127;SDS011;60000;51.030;7.024;2023-05-10T14:10:54;5.50;;;2.63;;
72127;SDS011;60000;51.030;7.024;2023-05-10T14:13:21;5.47;;;2.25;;
72127;SDS011;60000;51.030;7.024;2023-05-10T14:15:46;4.97;;;2.20;;
72127;SDS011;60000;51.030;7.024;2023-05-10T14:18:11;5.40;;;2.10;;
72127;SDS011;60000;51.030;7.024;2023-05-10T14:20:37;4.37;;;2.03;;
72127;SDS011;60000;51.030;7.024;2023-05-10T14:23:02;4.63;;;2.03;;
72127;SDS011;60000;51.030;7.024;2023-05-10T14:25:28;5.23;;;2.37;;
72127;SDS011;60000;51.030;7.024;2023-05-10T14:27:53;5.40;;;2.25;;
72127;SDS011;60000;51.030;7.024;2023-05-10T14:30:19;3.87;;;1.60;;
72127;SDS011;60000;51.030;7.024;2023-05-10T14:32:45;5.10;;;2.15;;
72127;SDS011;60000;51.030;7.024;2023-05-10T14:35:11;10.10;;;4.67;;
72127;SDS011;60000;51.030;7.024;2023-05-10T14:37:37;11.27;;;6.17;;
72127;SDS011;60000;51.030;7.024;2023-05-10T14:40:03;8.95;;;5.30;;
72127;SDS011;60000;51.030;7.024;2023-05-10T14:42:29;9.70;;;5.37;;
72127;SDS011;60000;51.030;7.024;2023-05-10T14:44:56;10.63;;;5.22;;
72127;SDS011;60000;51.030;7.024;2023-05-10T14:47:21;10.63;;;5.47;;
72127;SDS011;60000;51.030;7.024;2023-05-10T14:49:46;9.27;;;4.60;;
72127;SDS011;60000;51.030;7.024;2023-05-10T14:52:12;9.60;;;5.03;;
72127;SDS011;60000;51.030;7.024;2023-05-10T14:54:37;8.50;;;4.80;;
72127;SDS011;60000;51.030;7.024;2023-05-10T14:57:03;11.90;;;5.57;;
72127;SDS011;60000;51.030;7.024;2023-05-10T14:59:28;14.57;;;7.07;;
72127;SDS011;60000;51.030;7.024;2023-05-10T15:01:54;12.20;;;6.67;;
72127;SDS011;60000;51.030;7.024;2023-05-10T15:04:19;9.97;;;5.47;;
72127;SDS011;60000;51.030;7.024;2023-05-10T15:06:44;9.13;;;4.43;;
72127;SDS011;60000;51.030;7.024;2023-05-10T15:09:10;8.27;;;4.07;;
72127;SDS011;60000;51.030;7.024;2023-05-10T15:11:35;7.67;;;4.00;;
72127;SDS011;60000;51.030;7.024;2023-05-10T15:14:01;8.88;;;4.22;;
72127;SDS011;60000;51.030;7.024;2023-05-10T15:16:26;7.53;;;3.80;;
72127;SDS011;60000;51.030;7.024;2023-05-10T15:18:52;8.60;;;4.05;;
72127;SDS011;60000;51.030;7.024;2023-05-10T15:21:17;7.53;;;3.40;;